Time;durP1;ratioP1;P1;durP2;ratioP2;P2;SDS_P1;SDS_P2;PMS_P1;PMS_P2;Temp;Humidity;BMP_temperature;BMP_pressure;BME280_temperature;BME280_humidity;BME280_pressure;Samples;Min_cycle;Max_cycle;Signal;HPM_P1;HPM_P2
2021/09/29 00:00:18;;;;;;;26.10;21.27;;;;;;;14.42;100.00;96089.28;1027945;28;20026;-67
2021/09/29 00:00:48;;;;;;;25.87;22.93;;;;;;;14.41;100.00;96093.06;1027840;28;20058;-67
2021/09/29 00:01:19;;;;;;;28.23;21.90;;;;;;;14.44;100.00;96091.69;1028060;28;20023;-68
2021/09/29 00:01:49;;;;;;;25.83;22.90;;;;;;;14.42;100.00;96083.91;1028109;28;20036;-67
2021/09/29 00:02:20;;;;;;;24.80;22.10;;;;;;;14.43;100.00;96085.50;1032054;28;20034;-68
2021/09/29 00:02:50;;;;;;;26.73;22.10;;;;;;;14.44;100.00;96089.81;1032351;28;20030;-68
2021/09/29 00:03:20;;;;;;;25.67;21.47;;;;;;;14.40;100.00;96088.00;1032376;28;20026;-68
2021/09/29 00:03:51;;;;;;;29.10;22.73;;;;;;;14.41;100.00;96090.38;1032383;28;20345;-67
2021/09/29 00:04:21;;;;;;;25.17;22.43;;;;;;;14.39;100.00;96089.88;1032313;28;20090;-67
2021/09/29 00:04:52;;;;;;;24.37;21.50;;;;;;;14.39;100.00;96089.09;1032308;28;20356;-68
2021/09/29 00:05:22;;;;;;;28.10;22.43;;;;;;;14.36;100.00;96090.44;1032326;28;20054;-68
2021/09/29 00:05:52;;;;;;;27.07;22.33;;;;;;;14.35;100.00;96085.38;1032323;28;20029;-67
2021/09/29 00:06:23;;;;;;;25.30;21.93;;;;;;;14.36;100.00;96084.28;1031941;28;20110;-67
2021/09/29 00:06:53;;;;;;;24.20;20.83;;;;;;;14.34;100.00;96086.47;1031983;28;20013;-67
2021/09/29 00:07:24;;;;;;;26.33;22.57;;;;;;;14.38;100.00;96082.09;1031987;28;20037;-67
2021/09/29 00:07:54;;;;;;;24.83;21.00;;;;;;;14.37;100.00;96081.28;1028071;28;20015;-67
2021/09/29 00:08:24;;;;;;;23.57;21.00;;;;;;;14.38;100.00;96082.09;1023934;29;20023;-67
2021/09/29 00:08:55;;;;;;;25.93;21.97;;;;;;;14.34;100.00;96081.09;1023939;29;20466;-68
2021/09/29 00:09:25;;;;;;;25.27;20.50;;;;;;;14.38;100.00;96076.72;1024040;28;20058;-68
2021/09/29 00:09:56;;;;;;;25.67;22.87;;;;;;;14.34;100.00;96076.50;1028019;28;20468;-68
2021/09/29 00:10:26;;;;;;;26.70;22.53;;;;;;;14.34;100.00;96075.72;1031735;28;20455;-68
2021/09/29 00:10:57;;;;;;;24.77;20.90;;;;;;;14.38;100.00;96074.03;1032294;28;20156;-68
2021/09/29 00:11:27;;;;;;;23.23;20.83;;;;;;;14.37;100.00;96075.91;1032309;28;20022;-67
2021/09/29 00:11:58;;;;;;;25.37;21.50;;;;;;;14.38;100.00;96072.13;1032003;28;20419;-68
2021/09/29 00:12:28;;;;;;;24.53;21.83;;;;;;;14.35;100.00;96072.72;1027911;28;20488;-68
2021/09/29 00:12:58;;;;;;;26.90;20.50;;;;;;;14.38;100.00;96076.72;1027988;28;20495;-67
2021/09/29 00:13:29;;;;;;;26.07;21.47;;;;;;;14.38;100.00;96074.03;1028087;28;20031;-67
2021/09/29 00:14:00;;;;;;;26.38;22.52;;;;;;;14.35;100.00;96071.94;1032034;28;20491;-68
2021/09/29 00:14:31;;;;;;;24.17;21.47;;;;;;;14.36;100.00;96073.53;1032262;28;20026;-67
2021/09/29 00:15:04;;;;;;;25.97;22.13;;;;;;;14.35;100.00;96066.56;1031957;28;20026;-68
2021/09/29 00:15:34;;;;;;;27.33;22.35;;;;;;;14.37;100.00;96075.13;1031914;28;20428;-68
2021/09/29 00:16:05;;;;;;;26.97;20.40;;;;;;;14.33;100.00;96072.22;1032020;28;20601;-68
2021/09/29 00:16:35;;;;;;;32.13;22.47;;;;;;;14.36;100.00;96074.31;1024399;28;20058;-67
2021/09/29 00:17:05;;;;;;;25.83;22.30;;;;;;;14.36;100.00;96068.16;1028035;28;20018;-67
2021/09/29 00:17:37;;;;;;;25.87;21.23;;;;;;;14.39;100.00;96071.06;1027983;28;20448;-68
2021/09/29 00:18:07;;;;;;;27.70;21.15;;;;;;;14.39;100.00;96071.06;1028491;28;20105;-68
2021/09/29 00:18:38;;;;;;;24.63;21.50;;;;;;;14.40;100.00;96075.34;1035782;28;20419;-67
2021/09/29 00:19:08;;;;;;;28.80;22.93;;;;;;;14.42;100.00;96073.16;1032244;28;20472;-67
2021/09/29 00:19:39;;;;;;;24.70;21.93;;;;;;;14.40;100.00;96069.97;1032256;28;20450;-68
2021/09/29 00:20:09;;;;;;;25.27;21.07;;;;;;;14.40;100.00;96069.16;1032299;28;20029;-67
2021/09/29 00:20:40;;;;;;;24.13;21.30;;;;;;;14.42;100.00;96075.84;1027006;28;20030;-68
2021/09/29 00:21:10;;;;;;;26.70;21.90;;;;;;;14.43;100.00;96063.97;1023575;29;20512;-68
2021/09/29 00:21:41;;;;;;;22.90;20.40;;;;;;;14.45;100.00;96066.41;1020007;29;20074;-68
2021/09/29 00:22:11;;;;;;;24.97;21.80;;;;;;;14.43;100.00;96063.97;1014779;29;20012;-68
2021/09/29 00:22:42;;;;;;;25.07;21.77;;;;;;;14.41;100.00;96063.50;1016186;29;20385;-67
2021/09/29 00:23:12;;;;;;;26.97;22.20;;;;;;;14.43;100.00;96069.34;1020063;29;20469;-67
2021/09/29 00:23:43;;;;;;;27.90;21.83;;;;;;;14.42;100.00;96066.97;1024005;28;20032;-68
2021/09/29 00:24:13;;;;;;;26.43;21.83;;;;;;;14.43;100.00;96065.88;1027771;28;20389;-67
2021/09/29 00:24:44;;;;;;;23.27;20.77;;;;;;;14.44;100.00;96068.28;1031744;28;20456;-67
2021/09/29 00:25:15;;;;;;;24.57;21.53;;;;;;;14.42;100.00;96069.66;1031917;28;20464;-67
2021/09/29 00:25:45;;;;;;;28.02;23.35;;;;;;;14.36;100.00;96068.16;1031874;28;20014;-68
2021/09/29 00:26:15;;;;;;;28.43;22.63;;;;;;;14.38;100.00;96069.44;1031988;28;20073;-67
2021/09/29 00:26:46;;;;;;;27.50;23.30;;;;;;;14.40;100.00;96074.53;1031925;28;20069;-67
2021/09/29 00:27:16;;;;;;;26.30;22.50;;;;;;;14.36;100.00;96071.63;1031907;28;20023;-68
2021/09/29 00:27:47;;;;;;;27.30;22.73;;;;;;;14.38;100.00;96069.44;1028098;28;20015;-68
2021/09/29 00:28:17;;;;;;;28.47;22.50;;;;;;;14.41;100.00;96070.75;1028314;28;20019;-68
2021/09/29 00:28:47;;;;;;;25.03;22.23;;;;;;;14.41;100.00;96070.75;1028263;28;20018;-68
2021/09/29 00:29:18;;;;;;;27.67;23.00;;;;;;;14.42;100.00;96066.97;1028266;28;20043;-68
2021/09/29 00:29:50;;;;;;;27.60;22.40;;;;;;;14.41;100.00;96079.63;1028223;28;20359;-68
2021/09/29 00:30:21;;;;;;;30.65;23.15;;;;;;;14.43;100.00;96074.75;1028234;28;20015;-68
2021/09/29 00:31:02;;;;;;;27.00;22.97;;;;;;;14.44;100.00;96070.97;1027555;28;20015;-68
2021/09/29 00:32:05;;;;;;;29.10;22.93;;;;;;;14.41;100.00;96068.88;1027924;28;20026;-67
2021/09/29 00:32:39;;;;;;;25.08;21.60;;;;;;;14.45;100.00;96077.94;1025661;28;20019;-69
2021/09/29 00:33:15;;;;;;;24.60;21.92;;;;;;;14.42;100.00;96070.47;1019903;29;20474;-67
2021/09/29 00:33:47;;;;;;;27.50;22.08;;;;;;;14.45;100.00;96067.19;1015996;29;20017;-67
2021/09/29 00:34:33;;;;;;;27.40;22.42;;;;;;;14.44;100.00;96072.88;1015955;29;20035;-69
2021/09/29 00:35:04;;;;;;;27.45;21.52;;;;;;;14.44;100.00;96072.88;1019442;29;20012;-68
2021/09/29 00:35:34;;;;;;;29.87;23.73;;;;;;;14.42;100.00;96070.47;1024625;28;20024;-69
2021/09/29 00:36:04;;;;;;;26.47;21.97;;;;;;;14.41;100.00;96065.38;1019914;29;20024;-68
2021/09/29 00:36:36;;;;;;;30.80;23.07;;;;;;;14.40;100.00;96069.97;1015977;29;20456;-69
2021/09/29 00:37:06;;;;;;;29.75;21.95;;;;;;;14.38;100.00;96072.13;1019834;29;20492;-69
2021/09/29 00:37:37;;;;;;;29.60;21.93;;;;;;;14.36;100.00;96068.16;1019898;29;20151;-68
2021/09/29 00:38:07;;;;;;;24.20;21.57;;;;;;;14.35;100.00;96064.66;1020093;29;20095;-68
2021/09/29 00:38:37;;;;;;;23.90;21.07;;;;;;;14.35;100.00;96061.97;1019927;29;20023;-69
2021/09/29 00:39:08;;;;;;;24.53;21.70;;;;;;;14.35;100.00;96061.19;1014202;29;20021;-68
2021/09/29 00:39:39;;;;;;;26.77;22.13;;;;;;;14.35;100.00;96070.03;1015764;29;20048;-69
2021/09/29 00:40:10;;;;;;;25.43;22.60;;;;;;;14.37;100.00;96065.16;1011998;29;20024;-69
2021/09/29 00:40:40;;;;;;;26.65;22.30;;;;;;;14.37;100.00;96067.06;1012067;29;20035;-68
2021/09/29 00:41:10;;;;;;;25.50;21.73;;;;;;;14.35;100.00;96061.19;1012199;29;20473;-67
2021/09/29 00:41:41;;;;;;;24.87;20.53;;;;;;;14.35;100.00;96064.66;1012359;29;20516;-67
2021/09/29 00:42:12;;;;;;;24.90;21.02;;;;;;;14.36;100.00;96068.94;1016176;29;20033;-68
2021/09/29 00:42:42;;;;;;;28.40;21.90;;;;;;;14.37;100.00;96067.06;1019937;29;20512;-68
2021/09/29 00:43:13;;;;;;;25.53;21.10;;;;;;;14.36;100.00;96068.16;1020116;29;20039;-67
2021/09/29 00:43:43;;;;;;;28.23;21.57;;;;;;;14.36;100.00;96074.31;1019793;29;20043;-68
2021/09/29 00:44:13;;;;;;;26.53;21.73;;;;;;;14.30;100.00;96067.44;1023862;28;20023;-68
2021/09/29 00:44:45;;;;;;;27.27;22.67;;;;;;;14.28;100.00;96067.72;1023890;29;20031;-68
2021/09/29 00:45:15;;;;;;;24.73;22.02;;;;;;;14.28;100.00;96069.63;1020056;29;20015;-68
2021/09/29 00:45:46;;;;;;;25.63;21.40;;;;;;;14.26;100.00;96071.78;1015977;29;20044;-68
2021/09/29 00:46:16;;;;;;;24.27;21.27;;;;;;;14.28;100.00;96067.72;1011660;29;20032;-67
2021/09/29 00:46:46;;;;;;;26.77;22.50;;;;;;;14.29;100.00;96063.94;1018416;29;20066;-68
2021/09/29 00:47:18;;;;;;;26.20;21.83;;;;;;;14.31;100.00;96069.81;1016012;29;20454;-68
2021/09/29 00:47:48;;;;;;;26.27;20.75;;;;;;;14.30;100.00;96070.91;1011979;29;20462;-68
2021/09/29 00:48:18;;;;;;;24.17;19.90;;;;;;;14.30;100.00;96067.44;1008296;29;20025;-69
2021/09/29 00:48:49;;;;;;;22.93;19.77;;;;;;;14.35;100.00;96074.63;1008416;29;20020;-69
2021/09/29 00:49:19;;;;;;;27.57;21.73;;;;;;;14.32;100.00;96068.72;1012214;29;20024;-67
2021/09/29 00:49:50;;;;;;;27.60;22.60;;;;;;;14.32;100.00;96076.00;1020059;28;20104;-68
2021/09/29 00:50:20;;;;;;;31.13;21.40;;;;;;;14.35;100.00;96074.63;1027852;28;20101;-68
2021/09/29 00:50:50;;;;;;;27.17;21.27;;;;;;;14.34;100.00;96073.03;1027853;28;20432;-67
2021/09/29 00:51:21;;;;;;;26.60;23.10;;;;;;;14.34;100.00;96075.72;1028171;28;20027;-68
2021/09/29 00:51:52;;;;;;;25.53;20.90;;;;;;;14.29;100.00;96068.53;1027884;28;20380;-67
2021/09/29 00:52:22;;;;;;;25.90;22.90;;;;;;;14.29;100.00;96068.53;1027742;28;20488;-68
2021/09/29 00:52:53;;;;;;;28.47;22.07;;;;;;;14.34;100.00;96076.50;1027666;28;20025;-68
2021/09/29 00:53:23;;;;;;;26.80;23.00;;;;;;;14.28;100.00;96075.00;1027879;28;20013;-68
2021/09/29 00:53:53;;;;;;;25.53;21.43;;;;;;;14.32;100.00;96078.66;1031795;28;20007;-67
2021/09/29 00:54:28;;;;;;;27.17;22.70;;;;;;;14.35;100.00;96078.09;1027766;28;20078;-67
2021/09/29 00:54:58;;;;;;;26.90;20.67;;;;;;;14.35;100.00;96083.47;1027840;28;20010;-67
2021/09/29 00:55:28;;;;;;;24.93;21.20;;;;;;;14.34;100.00;96076.50;1027825;28;20369;-68
2021/09/29 00:55:59;;;;;;;31.17;20.17;;;;;;;14.38;100.00;96082.09;1027906;28;20427;-67
2021/09/29 00:56:29;;;;;;;24.53;20.27;;;;;;;14.42;100.00;96086.59;1027814;28;20023;-68
2021/09/29 00:57:00;;;;;;;25.70;21.00;;;;;;;14.42;100.00;96078.53;1027539;28;20034;-67
2021/09/29 00:57:30;;;;;;;23.83;21.00;;;;;;;14.42;100.00;96083.91;1019864;29;20027;-68
2021/09/29 00:58:00;;;;;;;27.27;20.60;;;;;;;14.44;100.00;96086.31;1019998;28;20020;-68
2021/09/29 00:58:31;;;;;;;22.73;20.23;;;;;;;14.45;100.00;96074.47;1023825;29;20019;-68
2021/09/29 00:59:02;;;;;;;23.27;20.23;;;;;;;14.44;100.00;96080.94;1015885;29;20036;-68
2021/09/29 00:59:32;;;;;;;27.60;21.57;;;;;;;14.47;100.00;96078.47;1023929;29;20023;-68
2021/09/29 01:00:06;;;;;;;25.97;20.10;;;;;;;14.47;100.00;96085.72;1020033;29;20389;-68
2021/09/29 01:00:37;;;;;;;28.30;20.85;;;;;;;14.48;100.00;96079.28;1019725;29;20036;-69
2021/09/29 01:01:07;;;;;;;24.40;20.50;;;;;;;14.50;100.00;96085.19;1016473;29;20028;-68
2021/09/29 01:01:37;;;;;;;24.50;19.80;;;;;;;14.49;100.00;96079.00;1015906;29;20031;-68
2021/09/29 01:02:08;;;;;;;25.03;20.73;;;;;;;14.52;100.00;96082.97;1015951;29;20110;-67
2021/09/29 01:02:38;;;;;;;27.73;19.80;;;;;;;14.54;100.00;96084.31;1015962;29;20032;-67
2021/09/29 01:03:09;;;;;;;23.80;19.90;;;;;;;14.55;100.00;96087.78;1019527;29;20107;-68
2021/09/29 01:03:40;;;;;;;26.75;20.95;;;;;;;14.55;100.00;96088.59;1019657;29;20020;-68
2021/09/29 01:04:11;;;;;;;26.27;20.00;;;;;;;14.56;100.00;96087.47;1019956;29;20027;-68
2021/09/29 01:04:41;;;;;;;30.50;20.33;;;;;;;14.56;100.00;96084.78;1023768;29;20036;-68
2021/09/29 01:05:11;;;;;;;23.97;20.03;;;;;;;14.59;100.00;96082.59;1019968;29;20011;-68
2021/09/29 01:05:42;;;;;;;25.47;20.73;;;;;;;14.59;100.00;96087.97;1023585;28;20027;-68
2021/09/29 01:06:18;;;;;;;31.50;20.90;;;;;;;14.57;100.00;96082.91;1023894;29;20535;-67
2021/09/29 01:07:03;;;;;;;24.30;18.65;;;;;;;14.56;100.00;96079.41;1020595;28;20023;-68
2021/09/29 01:07:43;;;;;;;27.38;19.38;;;;;;;14.58;100.00;96081.81;1019044;29;20031;-68
2021/09/29 01:08:14;;;;;;;23.98;20.17;;;;;;;14.60;100.00;96086.91;1023862;29;20027;-67
2021/09/29 01:08:55;;;;;;;27.00;20.20;;;;;;;14.58;100.00;96087.19;1023637;28;20032;-67
2021/09/29 01:09:44;;;;;;;30.95;20.42;;;;;;;14.53;100.00;96082.69;1023868;29;20376;-68
2021/09/29 01:10:24;;;;;;;22.65;18.83;;;;;;;14.52;100.00;96086.47;1019992;29;20024;-67
2021/09/29 01:10:58;;;;;;;26.25;19.63;;;;;;;14.53;100.00;96079.19;1019909;29;20099;-68
2021/09/29 01:11:52;;;;;;;23.70;19.83;;;;;;;14.53;100.00;96093.44;1015835;29;20039;-68
2021/09/29 01:12:51;;;;;;;25.13;19.42;;;;;;;14.55;100.00;96079.72;1022853;28;20476;-67
2021/09/29 01:13:25;;;;;;;28.58;20.52;;;;;;;14.55;100.00;96087.78;1031598;28;20069;-67
2021/09/29 01:14:05;;;;;;;31.40;20.42;;;;;;;14.50;100.00;96085.97;1023562;29;20070;-67
2021/09/29 01:14:43;;;;;;;23.77;19.10;;;;;;;14.53;100.00;96089.94;1023683;29;20035;-68
2021/09/29 01:15:27;;;;;;;22.55;19.73;;;;;;;14.55;100.00;96093.97;1025535;28;20101;-67
2021/09/29 01:16:00;;;;;;;28.25;20.40;;;;;;;14.53;100.00;96098.81;1023787;29;20478;-68
2021/09/29 01:16:31;;;;;;;22.52;18.88;;;;;;;14.57;100.00;96099.03;1027758;28;20131;-67
2021/09/29 01:17:01;;;;;;;21.80;18.90;;;;;;;14.56;100.00;96098.25;1027711;28;20026;-67
2021/09/29 01:17:32;;;;;;;25.80;19.83;;;;;;;14.59;100.00;96098.75;1023719;29;20031;-67
2021/09/29 01:18:09;;;;;;;24.35;19.23;;;;;;;14.56;100.00;96089.38;1019854;28;20027;-68
2021/09/29 01:18:45;;;;;;;24.75;19.17;;;;;;;14.51;100.00;96090.25;1019798;29;20030;-67
2021/09/29 01:19:43;;;;;;;22.48;18.20;;;;;;;14.52;100.00;96093.75;1023762;29;20027;-68
2021/09/29 01:20:16;;;;;;;24.45;18.67;;;;;;;14.48;100.00;96090.03;1023820;29;20039;-67
2021/09/29 01:20:52;;;;;;;26.70;19.00;;;;;;;14.48;100.00;96090.81;1019718;29;20031;-68
2021/09/29 01:21:22;;;;;;;23.80;19.38;;;;;;;14.52;100.00;96096.44;1023800;29;20118;-67
2021/09/29 01:21:53;;;;;;;23.10;18.93;;;;;;;14.52;100.00;96097.22;1023786;29;20039;-67
2021/09/29 01:22:35;;;;;;;26.40;19.63;;;;;;;14.48;100.00;96098.88;1024777;28;20035;-67
2021/09/29 01:23:28;;;;;;;24.40;18.70;;;;;;;14.45;100.00;96090.59;1023889;29;20089;-67
2021/09/29 01:24:22;;;;;;;25.67;20.20;;;;;;;14.42;100.00;96096.56;1024327;28;20027;-67
2021/09/29 01:24:59;;;;;;;24.33;19.23;;;;;;;14.43;100.00;96090.88;1019998;29;20035;-68
2021/09/29 01:25:41;;;;;;;25.75;18.95;;;;;;;14.45;100.00;96095.97;1015912;29;20040;-67
2021/09/29 01:26:13;;;;;;;28.05;19.55;;;;;;;14.40;100.00;96096.84;1019913;29;20039;-67
2021/09/29 01:26:44;;;;;;;25.63;18.45;;;;;;;14.42;100.00;96091.16;1023779;29;20039;-67
2021/09/29 01:27:14;;;;;;;23.67;19.03;;;;;;;14.40;100.00;96093.38;1021767;29;20047;-67
2021/09/29 01:27:45;;;;;;;27.00;19.07;;;;;;;14.40;100.00;96086.09;1011856;29;20033;-68
2021/09/29 01:28:17;;;;;;;22.80;18.60;;;;;;;14.43;100.00;96096.25;1019832;29;20135;-67
2021/09/29 01:29:18;;;;;;;22.90;18.33;;;;;;;14.38;100.00;96101.69;1023837;29;20027;-67
2021/09/29 01:29:49;;;;;;;;;;;;;;;14.35;100.00;96096.13;1012393;29;20044;-67
2021/09/29 01:30:19;;;;;;;24.50;18.33;;;;;;;14.38;100.00;96100.91;1023863;28;19953;-67
2021/09/29 01:30:49;;;;;;;25.73;19.13;;;;;;;14.36;100.00;96098.50;1019901;29;20019;-68
2021/09/29 01:31:20;;;;;;;23.50;18.90;;;;;;;14.36;100.00;96101.22;1019907;29;20027;-68
2021/09/29 01:31:50;;;;;;;24.90;18.53;;;;;;;14.35;100.00;96102.31;1015903;29;20035;-68
2021/09/29 01:32:21;;;;;;;24.33;18.97;;;;;;;14.35;100.00;96098.81;1015599;29;20044;-67
2021/09/29 01:32:52;;;;;;;25.57;19.83;;;;;;;14.33;100.00;96107.19;1015863;29;20028;-68
2021/09/29 01:33:23;;;;;;;23.95;19.23;;;;;;;14.30;100.00;96099.69;1019715;29;20509;-68
2021/09/29 01:33:53;;;;;;;27.40;20.00;;;;;;;14.33;100.00;96093.75;1020102;29;20019;-68
2021/09/29 01:34:24;;;;;;;25.87;20.33;;;;;;;14.34;100.00;96105.28;1011892;29;20032;-68
2021/09/29 01:34:54;;;;;;;24.97;19.57;;;;;;;14.29;100.00;96101.56;1012048;29;20043;-68
2021/09/29 01:35:25;;;;;;;25.90;19.77;;;;;;;14.32;100.00;96094.81;1015964;29;20040;-68
2021/09/29 01:35:55;;;;;;;27.13;19.17;;;;;;;14.32;100.00;96097.50;1016020;29;20031;-69
2021/09/29 01:36:26;;;;;;;22.83;19.53;;;;;;;14.29;100.00;96100.78;1019932;29;20054;-68
2021/09/29 01:36:56;;;;;;;26.27;19.83;;;;;;;14.26;100.00;96094.09;1023837;28;20403;-68
2021/09/29 01:37:28;;;;;;;25.17;19.20;;;;;;;14.27;100.00;96095.69;1023627;28;20091;-68
2021/09/29 01:37:58;;;;;;;25.08;20.20;;;;;;;14.24;100.00;96098.16;1019917;29;20083;-69
2021/09/29 01:38:29;;;;;;;23.77;19.57;;;;;;;14.27;100.00;96100.25;1023798;29;20440;-68
2021/09/29 01:39:01;;;;;;;25.52;20.05;;;;;;;14.28;100.00;96099.97;1024160;28;20053;-68
2021/09/29 01:39:32;;;;;;;24.58;19.75;;;;;;;14.27;100.00;96106.44;1024093;28;20043;-68
2021/09/29 01:40:03;;;;;;;25.13;19.63;;;;;;;14.32;100.00;96100.19;1019721;29;20031;-68
2021/09/29 01:40:33;;;;;;;22.03;19.60;;;;;;;14.28;100.00;96102.66;1019637;29;20035;-68
2021/09/29 01:41:05;;;;;;;24.43;19.47;;;;;;;14.29;100.00;96111.53;1019296;29;20259;-68
2021/09/29 01:41:37;;;;;;;22.63;19.02;;;;;;;14.31;100.00;96109.34;1023747;29;20023;-68
2021/09/29 01:42:08;;;;;;;22.83;19.23;;;;;;;14.28;100.00;96107.25;1020078;28;20128;-68
2021/09/29 01:42:38;;;;;;;21.30;19.00;;;;;;;14.27;100.00;96101.03;1023732;29;20067;-68
2021/09/29 01:43:09;;;;;;;25.53;19.77;;;;;;;14.32;100.00;96102.88;1023260;29;20027;-68
2021/09/29 01:43:39;;;;;;;22.83;18.60;;;;;;;14.33;100.00;96109.88;1023956;28;20107;-68
2021/09/29 01:44:10;;;;;;;24.77;18.90;;;;;;;14.32;100.00;96097.50;1027792;28;20455;-68
2021/09/29 01:44:41;;;;;;;22.53;18.93;;;;;;;14.34;100.00;96099.91;1031793;28;20030;-67
2021/09/29 01:45:11;;;;;;;26.57;19.23;;;;;;;14.35;100.00;96107.69;1031698;28;20069;-67
2021/09/29 01:45:46;;;;;;;23.60;18.83;;;;;;;14.37;100.00;96102.00;1028174;28;20050;-68
2021/09/29 01:46:16;;;;;;;25.88;19.85;;;;;;;14.36;100.00;96097.72;1027814;28;20046;-67
2021/09/29 01:46:46;;;;;;;22.27;18.10;;;;;;;14.37;100.00;96099.31;1028010;28;20031;-69
2021/09/29 01:47:17;;;;;;;22.47;19.40;;;;;;;14.39;100.00;96094.47;1028029;28;20480;-68
2021/09/29 01:47:48;;;;;;;22.00;18.27;;;;;;;14.34;100.00;96092.63;1027784;28;20031;-68
2021/09/29 01:48:18;;;;;;;24.52;18.98;;;;;;;14.37;100.00;96089.34;1019716;29;20024;-68
2021/09/29 01:49:15;;;;;;;24.43;18.93;;;;;;;14.36;100.00;96085.06;1019880;29;20401;-69
2021/09/29 01:49:47;;;;;;;22.45;18.17;;;;;;;14.40;100.00;96091.47;1023368;29;20106;-66
2021/09/29 01:50:19;;;;;;;23.08;18.73;;;;;;;14.40;100.00;96083.41;1027467;28;20030;-66
2021/09/29 01:50:57;;;;;;;28.98;18.67;;;;;;;14.39;100.00;96084.50;1023726;29;20070;-67
2021/09/29 01:51:31;;;;;;;21.80;17.75;;;;;;;14.41;100.00;96081.50;1023760;29;20102;-67
2021/09/29 01:52:03;;;;;;;26.52;19.25;;;;;;;14.41;100.00;96084.19;1023769;29;20058;-68
2021/09/29 01:52:36;;;;;;;24.88;18.33;;;;;;;14.41;100.00;96092.28;1019104;29;20425;-67
2021/09/29 01:53:07;;;;;;;24.65;19.40;;;;;;;14.39;100.00;96084.50;1011784;29;20136;-67
2021/09/29 01:53:37;;;;;;;21.97;18.40;;;;;;;14.40;100.00;96086.09;1019873;29;20062;-68
2021/09/29 01:54:07;;;;;;;22.90;17.83;;;;;;;14.40;100.00;96086.09;1019800;29;20015;-67
2021/09/29 01:54:42;;;;;;;23.10;19.30;;;;;;;14.34;100.00;96087.25;1019792;29;20477;-67
2021/09/29 01:55:16;;;;;;;22.70;17.90;;;;;;;14.36;100.00;96082.38;1019682;29;20019;-67
2021/09/29 01:55:46;;;;;;;20.00;17.92;;;;;;;14.36;100.00;96077.00;1015916;29;20068;-68
2021/09/29 01:56:17;;;;;;;23.77;18.63;;;;;;;14.34;100.00;96083.78;1012997;29;20076;-67
2021/09/29 01:56:47;;;;;;;25.87;18.80;;;;;;;14.30;100.00;96080.88;1017345;29;20036;-67
2021/09/29 01:57:18;;;;;;;21.50;18.73;;;;;;;14.29;100.00;96079.28;1016324;29;20031;-67
2021/09/29 01:57:48;;;;;;;24.23;19.33;;;;;;;14.28;100.00;96075.78;1015915;29;20040;-68
2021/09/29 01:58:18;;;;;;;20.67;18.47;;;;;;;14.28;100.00;96080.38;1015859;29;20024;-67
2021/09/29 01:58:49;;;;;;;22.17;18.50;;;;;;;14.27;100.00;96081.44;1015948;29;20036;-67
2021/09/29 01:59:24;;;;;;;22.87;18.33;;;;;;;14.23;100.00;96075.88;1019829;29;20027;-67
2021/09/29 01:59:54;;;;;;;23.85;19.70;;;;;;;14.16;100.00;96077.31;1020486;29;20060;-66
2021/09/29 02:00:25;;;;;;;23.93;19.20;;;;;;;14.18;100.00;96075.13;1020421;29;20027;-67
2021/09/29 02:00:55;;;;;;;22.37;18.97;;;;;;;14.15;100.00;96071.13;1023559;29;20035;-68
2021/09/29 02:01:25;;;;;;;22.50;18.13;;;;;;;14.20;100.00;96081.00;1024198;28;20035;-67
2021/09/29 02:01:56;;;;;;;20.00;17.83;;;;;;;14.24;100.00;96080.16;1023771;28;20027;-67
2021/09/29 02:02:26;;;;;;;22.63;19.80;;;;;;;14.29;100.00;96073.91;1023986;28;20038;-67
2021/09/29 02:02:57;;;;;;;22.10;18.67;;;;;;;14.30;100.00;96078.97;1019726;29;20036;-68
2021/09/29 02:03:27;;;;;;;24.37;19.57;;;;;;;14.34;100.00;96081.09;1015745;29;20386;-67
2021/09/29 02:03:58;;;;;;;20.90;17.53;;;;;;;14.35;100.00;96080.78;1015908;29;20076;-67
2021/09/29 02:04:28;;;;;;;21.40;17.63;;;;;;;14.34;100.00;96081.09;1015883;29;20060;-68
2021/09/29 02:04:58;;;;;;;22.50;19.13;;;;;;;14.27;100.00;96081.44;1008168;29;20507;-67
2021/09/29 02:05:33;;;;;;;22.43;19.03;;;;;;;14.24;100.00;96087.41;1008259;29;20033;-67
2021/09/29 02:06:03;;;;;;;23.42;18.90;;;;;;;14.28;100.00;96085.75;1012473;29;20494;-68
2021/09/29 02:06:54;;;;;;;21.27;19.03;;;;;;;14.24;100.00;96082.03;1013120;29;20032;-68
2021/09/29 02:07:26;;;;;;;;;;;;;;;14.19;100.00;96082.91;1019369;29;20022;-67
2021/09/29 02:07:57;;;;;;;23.73;19.67;;;;;;;14.20;100.00;96086.38;1022713;29;19917;-67
2021/09/29 02:08:27;;;;;;;22.42;18.33;;;;;;;14.19;100.00;96085.59;1026738;28;20031;-68
2021/09/29 02:08:58;;;;;;;25.03;18.57;;;;;;;14.23;100.00;96086.63;1020273;29;20043;-68
2021/09/29 02:09:28;;;;;;;23.97;19.30;;;;;;;14.24;100.00;96084.72;1023722;29;20011;-67
2021/09/29 02:09:59;;;;;;;21.47;17.47;;;;;;;14.26;100.00;96086.00;1019765;29;20019;-68
2021/09/29 02:10:29;;;;;;;22.30;17.80;;;;;;;14.23;100.00;96081.25;1019911;28;20020;-67
2021/09/29 02:11:00;;;;;;;22.67;18.57;;;;;;;14.18;100.00;96083.19;1023794;29;20060;-67
2021/09/29 02:11:30;;;;;;;25.33;18.97;;;;;;;14.12;100.00;96085.13;1023614;28;20027;-68
2021/09/29 02:12:00;;;;;;;22.27;18.33;;;;;;;14.12;100.00;96090.50;1019718;29;20028;-68
2021/09/29 02:12:31;;;;;;;22.67;19.50;;;;;;;14.14;100.00;96088.34;1022600;29;20023;-68
2021/09/29 02:13:02;;;;;;;24.23;19.53;;;;;;;14.11;100.00;96083.53;1023761;29;20035;-67
2021/09/29 02:13:32;;;;;;;21.67;18.33;;;;;;;14.16;100.00;96082.69;1019863;28;20056;-68
2021/09/29 02:14:02;;;;;;;21.37;17.60;;;;;;;14.19;100.00;96079.41;1027778;28;20034;-68
2021/09/29 02:14:33;;;;;;;22.77;17.83;;;;;;;14.20;100.00;96086.38;1019813;29;20035;-68
2021/09/29 02:15:04;;;;;;;23.07;17.87;;;;;;;14.22;100.00;96081.50;1019741;29;20024;-67
2021/09/29 02:15:35;;;;;;;24.73;18.08;;;;;;;14.21;100.00;96080.72;1020138;29;20072;-67
2021/09/29 02:16:05;;;;;;;22.40;18.90;;;;;;;14.18;100.00;96078.63;1020607;29;20079;-68
2021/09/29 02:16:36;;;;;;;20.03;17.73;;;;;;;14.17;100.00;96073.50;1024328;29;20120;-68
2021/09/29 02:17:06;;;;;;;19.67;17.57;;;;;;;14.13;100.00;96080.59;1024447;29;20027;-68
2021/09/29 02:17:37;;;;;;;21.73;18.10;;;;;;;14.13;100.00;96080.59;1024483;28;20027;-68
2021/09/29 02:18:07;;;;;;;24.90;19.33;;;;;;;14.09;100.00;96074.19;1032406;28;20023;-67
2021/09/29 02:18:38;;;;;;;23.07;18.60;;;;;;;14.10;100.00;96081.16;1032366;28;20033;-68
2021/09/29 02:19:08;;;;;;;21.07;18.13;;;;;;;14.11;100.00;96080.84;1028731;28;20023;-68
2021/09/29 02:19:38;;;;;;;21.57;18.00;;;;;;;14.09;100.00;96072.28;1024230;28;20016;-67
2021/09/29 02:20:10;;;;;;;20.90;18.53;;;;;;;14.12;100.00;96073.59;1024454;29;20078;-67
2021/09/29 02:20:41;;;;;;;21.02;17.48;;;;;;;14.13;100.00;96073.31;1024375;29;20027;-67
2021/09/29 02:21:11;;;;;;;23.27;19.63;;;;;;;14.08;100.00;96073.38;1024664;28;20039;-68
2021/09/29 02:21:42;;;;;;;22.87;19.23;;;;;;;14.04;100.00;96075.84;1028275;28;20039;-67
2021/09/29 02:22:16;;;;;;;24.23;20.67;;;;;;;14.02;100.00;96072.66;1028648;28;20383;-68
2021/09/29 02:22:46;;;;;;;22.38;19.92;;;;;;;14.02;100.00;96077.22;1028394;28;20035;-68
2021/09/29 02:23:17;;;;;;;24.17;20.27;;;;;;;14.04;100.00;96073.16;1028815;28;20038;-67
2021/09/29 02:23:48;;;;;;;27.92;20.25;;;;;;;14.05;100.00;96074.75;1028319;28;20532;-67
2021/09/29 02:24:18;;;;;;;24.47;19.53;;;;;;;14.08;100.00;96078.75;1028394;28;20034;-67
2021/09/29 02:24:49;;;;;;;24.10;19.07;;;;;;;14.08;100.00;96077.97;1028365;28;20111;-67
2021/09/29 02:25:19;;;;;;;22.40;19.57;;;;;;;14.10;100.00;96081.16;1028446;28;20053;-67
2021/09/29 02:25:50;;;;;;;25.70;19.33;;;;;;;14.11;100.00;96086.22;1028676;28;20058;-67
2021/09/29 02:26:20;;;;;;;23.90;18.77;;;;;;;14.13;100.00;96081.38;1028711;28;20085;-68
2021/09/29 02:26:51;;;;;;;21.30;19.00;;;;;;;14.14;100.00;96082.97;1028684;28;20027;-68